Time;durP1;ratioP1;P1;durP2;ratioP2;P2;SDS_P1;SDS_P2;PMS_P1;PMS_P2;Temp;Humidity;BMP_temperature;BMP_pressure;BME280_temperature;BME280_humidity;BME280_pressure;Samples;Min_cycle;Max_cycle;Signal;HPM_P1;HPM_P2
2021/05/10 00:00:29;;;;;;;6.43;4.38;;;15.90;68.10;;;;;;5019343;28;20108;-72
2021/05/10 00:02:55;;;;;;;8.93;4.32;;;15.90;67.40;;;;;;5034872;28;20032;-72
2021/05/10 00:05:21;;;;;;;6.93;4.80;;;15.90;68.20;;;;;;5019408;28;20030;-72
2021/05/10 00:07:47;;;;;;;8.73;4.40;;;15.90;67.90;;;;;;5019238;28;20437;-72
2021/05/10 00:10:13;;;;;;;6.32;3.88;;;16.00;68.40;;;;;;5019467;28;20026;-72
2021/05/10 00:12:38;;;;;;;8.10;4.45;;;16.10;67.20;;;;;;5019468;28;20033;-72
2021/05/10 00:15:05;;;;;;;5.97;3.92;;;16.20;67.00;;;;;;5019288;28;20025;-72
2021/05/10 00:17:31;;;;;;;8.45;3.72;;;16.20;66.80;;;;;;5018951;28;20072;-72
2021/05/10 00:19:57;;;;;;;4.47;3.47;;;16.30;66.70;;;;;;5018984;28;20026;-72
2021/05/10 00:22:22;;;;;;;5.25;3.38;;;16.40;66.90;;;;;;5019320;28;20050;-72
2021/05/10 00:24:48;;;;;;;6.78;3.40;;;16.50;66.70;;;;;;5018890;28;20422;-72
2021/05/10 00:27:14;;;;;;;5.30;3.20;;;16.50;66.60;;;;;;5018787;28;20034;-73
2021/05/10 00:29:40;;;;;;;5.78;3.03;;;16.60;66.30;;;;;;5018776;28;20105;-72
2021/05/10 00:32:06;;;;;;;4.60;2.90;;;16.60;66.30;;;;;;5019037;28;20109;-72
2021/05/10 00:34:32;;;;;;;4.50;2.95;;;16.70;65.70;;;;;;5018657;28;20049;-72
2021/05/10 00:36:57;;;;;;;5.28;3.13;;;16.80;65.50;;;;;;5019012;28;20034;-72
2021/05/10 00:39:24;;;;;;;8.88;3.10;;;16.80;65.20;;;;;;5018637;28;20030;-72
2021/05/10 00:41:50;;;;;;;6.18;2.72;;;17.00;65.10;;;;;;5018901;28;20365;-72
2021/05/10 00:44:16;;;;;;;5.18;2.30;;;17.10;64.70;;;;;;5018748;28;20173;-72
2021/05/10 00:46:42;;;;;;;8.05;2.63;;;17.10;65.00;;;;;;5018397;28;20034;-72
2021/05/10 00:49:08;;;;;;;4.57;2.45;;;17.10;65.20;;;;;;5018428;28;20037;-72
2021/05/10 00:51:33;;;;;;;4.43;2.00;;;17.10;66.00;;;;;;5018703;28;20038;-72
2021/05/10 00:53:59;;;;;;;4.93;1.60;;;17.00;67.40;;;;;;5018333;28;20022;-72
2021/05/10 00:56:25;;;;;;;3.53;1.30;;;16.90;67.20;;;;;;5018338;28;20038;-72
2021/05/10 00:58:51;;;;;;;3.58;1.30;;;16.60;69.10;;;;;;5018580;28;20046;-72
2021/05/10 01:01:17;;;;;;;6.03;1.60;;;16.40;70.30;;;;;;5018521;28;20383;-72
2021/05/10 01:03:47;;;;;;;4.50;1.75;;;16.30;69.80;;;;;;5018400;28;20018;-72
2021/05/10 01:06:13;;;;;;;3.03;1.67;;;16.10;70.20;;;;;;5018051;28;20057;-72
2021/05/10 01:08:38;;;;;;;5.90;2.15;;;16.10;70.10;;;;;;5018360;28;20053;-72
2021/05/10 01:11:04;;;;;;;5.07;2.58;;;16.00;70.30;;;;;;5018340;28;20407;-72
2021/05/10 01:13:30;;;;;;;3.95;1.75;;;16.00;71.30;;;;;;5018348;28;20291;-72
2021/05/10 01:15:56;;;;;;;2.97;1.73;;;16.00;72.20;;;;;;5017882;28;20049;-72
2021/05/10 01:18:23;;;;;;;4.82;1.70;;;15.90;72.40;;;;;;5018181;28;20046;-72
2021/05/10 01:20:50;;;;;;;5.63;1.73;;;15.90;72.90;;;;;;5018161;28;20026;-72
2021/05/10 01:23:17;;;;;;;5.43;2.72;;;15.90;72.90;;;;;;5018221;28;20048;-72
2021/05/10 01:25:44;;;;;;;5.43;1.50;;;15.90;73.40;;;;;;5017528;28;20100;-72
2021/05/10 01:28:10;;;;;;;3.20;1.60;;;15.80;73.50;;;;;;5017755;28;20029;-72
2021/05/10 01:30:42;;;;;;;9.40;1.95;;;15.80;73.70;;;;;;5017992;28;20022;-72
2021/05/10 01:33:10;;;;;;;7.63;2.05;;;15.70;73.50;;;;;;5017633;28;20468;-72
2021/05/10 01:35:39;;;;;;;4.05;2.10;;;15.70;73.30;;;;;;5017561;28;20410;-72
2021/05/10 01:38:07;;;;;;;5.35;2.67;;;15.60;73.30;;;;;;5017564;28;20022;-72
2021/05/10 01:40:34;;;;;;;6.07;2.55;;;15.60;72.60;;;;;;5017811;28;20026;-72
2021/05/10 01:43:00;;;;;;;2.67;2.22;;;15.70;72.70;;;;;;5017859;28;20419;-72
2021/05/10 01:45:26;;;;;;;7.28;2.03;;;15.60;74.30;;;;;;5017297;28;20030;-72
2021/05/10 01:48:01;;;;;;;4.88;2.20;;;15.50;74.00;;;;;;5017738;28;20100;-72
2021/05/10 01:50:28;;;;;;;4.00;2.23;;;15.40;74.70;;;;;;5017752;28;20361;-72
2021/05/10 01:52:54;;;;;;;5.88;3.10;;;15.10;75.60;;;;;;5017390;28;20084;-72
2021/05/10 01:55:22;;;;;;;5.35;2.75;;;14.90;75.90;;;;;;5016942;28;20037;-72
2021/05/10 01:57:59;;;;;;;3.95;2.47;;;14.80;75.80;;;;;;5017245;28;20434;-72
2021/05/10 02:00:36;;;;;;;4.10;2.15;;;14.70;76.00;;;;;;5017228;28;20029;-72
2021/05/10 02:03:04;;;;;;;3.28;2.25;;;14.70;76.90;;;;;;5017222;28;20087;-72
2021/05/10 02:05:30;;;;;;;9.98;2.33;;;14.70;77.60;;;;;;5016997;28;20026;-72
2021/05/10 02:07:58;;;;;;;4.45;2.30;;;14.60;78.00;;;;;;5017085;28;20026;-72
2021/05/10 02:10:33;;;;;;;3.75;2.05;;;14.60;78.70;;;;;;5017404;28;20030;-72
2021/05/10 02:13:04;;;;;;;6.60;2.78;;;14.50;78.60;;;;;;5017390;28;20366;-72
2021/05/10 02:15:40;;;;;;;4.47;2.72;;;14.50;79.10;;;;;;5016945;28;20441;-72
2021/05/10 02:18:07;;;;;;;6.45;3.10;;;14.50;78.30;;;;;;5017039;28;20041;-72
2021/05/10 02:20:34;;;;;;;5.85;3.42;;;14.60;77.10;;;;;;5017211;28;20025;-72
2021/05/10 02:23:05;;;;;;;6.55;3.60;;;14.50;78.50;;;;;;5017292;28;20030;-72
2021/05/10 02:25:36;;;;;;;5.20;3.80;;;14.50;77.70;;;;;;5016577;28;20069;-72
2021/05/10 02:28:04;;;;;;;6.32;3.60;;;14.40;77.10;;;;;;5017168;28;20125;-72
2021/05/10 02:30:31;;;;;;;7.13;3.88;;;14.30;78.50;;;;;;5016792;28;20030;-72
2021/05/10 02:32:59;;;;;;;6.30;3.50;;;14.10;77.00;;;;;;5016850;28;20437;-72
2021/05/10 02:35:25;;;;;;;6.85;3.83;;;14.10;77.20;;;;;;5017055;28;20045;-72
2021/05/10 02:37:51;;;;;;;10.88;3.85;;;13.90;77.10;;;;;;5016824;28;20034;-72
2021/05/10 02:40:18;;;;;;;6.22;3.03;;;13.80;77.60;;;;;;5016752;28;20022;-72
2021/05/10 02:42:45;;;;;;;9.20;3.75;;;13.70;78.10;;;;;;5016750;28;20083;-72
2021/05/10 02:45:12;;;;;;;6.15;3.03;;;13.60;78.00;;;;;;5016579;28;20101;-72
2021/05/10 02:47:39;;;;;;;7.60;3.20;;;13.50;78.60;;;;;;5016982;28;20132;-72
2021/05/10 02:50:10;;;;;;;5.32;2.72;;;13.40;78.70;;;;;;5016955;28;20026;-72
2021/05/10 02:52:36;;;;;;;4.90;2.70;;;13.40;78.80;;;;;;5017030;28;20038;-72
2021/05/10 02:55:06;;;;;;;9.75;2.83;;;13.40;79.30;;;;;;5016850;28;20064;-72
2021/05/10 02:57:33;;;;;;;5.35;3.13;;;13.40;79.10;;;;;;5016998;28;20370;-72
2021/05/10 02:59:58;;;;;;;4.10;2.72;;;13.30;79.60;;;;;;5016844;28;20022;-71
2021/05/10 03:02:24;;;;;;;8.32;3.88;;;13.30;79.60;;;;;;5016883;28;20080;-72
2021/05/10 03:04:50;;;;;;;5.90;3.08;;;13.20;79.60;;;;;;5016524;28;20106;-72
2021/05/10 03:07:16;;;;;;;3.63;2.53;;;13.20;79.70;;;;;;5016779;28;20029;-72
2021/05/10 03:09:42;;;;;;;3.80;2.53;;;13.20;79.90;;;;;;5020559;28;20414;-72
2021/05/10 03:12:08;;;;;;;5.68;2.50;;;13.20;80.60;;;;;;5020315;28;20399;-72
2021/05/10 03:14:34;;;;;;;4.00;3.08;;;13.20;81.50;;;;;;5020502;28;20295;-72
2021/05/10 03:16:59;;;;;;;7.20;3.45;;;13.10;81.50;;;;;;5020526;28;20083;-72
2021/05/10 03:19:25;;;;;;;7.57;4.25;;;13.10;81.40;;;;;;5020435;28;20406;-72
2021/05/10 03:21:51;;;;;;;8.35;4.07;;;13.10;80.50;;;;;;5020125;28;20026;-72
2021/05/10 03:24:16;;;;;;;8.57;4.75;;;13.10;80.50;;;;;;5020329;28;20026;-72
2021/05/10 03:26:42;;;;;;;7.57;4.28;;;13.10;80.70;;;;;;5019754;28;20433;-72
2021/05/10 03:29:09;;;;;;;5.88;3.10;;;13.10;80.10;;;;;;5019955;28;20030;-72
2021/05/10 03:31:35;;;;;;;6.47;3.13;;;13.10;78.90;;;;;;5019966;28;20037;-72
2021/05/10 03:34:02;;;;;;;4.10;3.08;;;13.20;78.90;;;;;;5020140;28;20026;-72
2021/05/10 03:36:28;;;;;;;6.88;2.63;;;13.20;79.30;;;;;;5020112;28;20050;-72
2021/05/10 03:38:54;;;;;;;4.28;2.90;;;13.20;79.60;;;;;;5020157;28;20050;-72
2021/05/10 03:41:22;;;;;;;3.70;2.22;;;13.20;79.70;;;;;;5020003;28;20038;-72
2021/05/10 03:43:49;;;;;;;3.80;2.00;;;13.20;79.50;;;;;;5019969;28;20037;-72
2021/05/10 03:46:14;;;;;;;6.60;2.38;;;13.20;79.90;;;;;;5019577;28;20118;-72
2021/05/10 03:48:40;;;;;;;4.70;2.03;;;13.10;80.40;;;;;;5019921;28;20049;-72
2021/05/10 03:51:06;;;;;;;3.70;2.47;;;13.00;80.70;;;;;;5019833;28;20363;-72
2021/05/10 03:53:32;;;;;;;4.65;2.38;;;13.00;80.80;;;;;;5020263;28;20060;-72
2021/05/10 03:55:58;;;;;;;5.45;2.60;;;12.90;80.90;;;;;;5019847;28;20026;-72
2021/05/10 03:58:23;;;;;;;5.95;2.45;;;12.90;81.10;;;;;;5019418;28;20116;-72
2021/05/10 04:00:49;;;;;;;6.28;2.70;;;12.90;81.00;;;;;;5019391;28;20026;-72
2021/05/10 04:03:16;;;;;;;7.35;3.45;;;12.90;81.10;;;;;;5019371;28;20058;-72
2021/05/10 04:15:55;;;;;;;6.95;3.80;;;13.00;82.00;;;;;;5019384;28;20377;-72
2021/05/10 04:18:21;;;;;;;4.30;3.05;;;12.90;81.80;;;;;;5018740;28;20038;-72
2021/05/10 04:20:48;;;;;;;5.15;3.28;;;12.90;81.70;;;;;;5018971;28;20032;-72
2021/05/10 04:23:16;;;;;;;4.65;2.95;;;12.90;82.50;;;;;;5019331;28;20030;-72
2021/05/10 04:25:44;;;;;;;6.03;3.13;;;12.90;82.90;;;;;;5018664;28;20128;-72
2021/05/10 04:28:10;;;;;;;4.78;3.10;;;12.90;83.20;;;;;;5019199;28;20030;-72
2021/05/10 04:30:36;;;;;;;7.22;3.08;;;13.00;83.20;;;;;;5018824;28;20402;-72
2021/05/10 04:33:02;;;;;;;4.78;3.03;;;13.00;83.60;;;;;;5019127;28;20026;-72
2021/05/10 04:35:28;;;;;;;7.65;3.72;;;12.90;83.90;;;;;;5018627;28;20137;-72
2021/05/10 04:37:54;;;;;;;4.75;4.03;;;13.00;83.70;;;;;;5019022;28;20030;-72
2021/05/10 04:40:19;;;;;;;7.60;4.30;;;13.00;82.30;;;;;;5018609;28;20026;-72
2021/05/10 04:42:47;;;;;;;8.88;5.03;;;13.20;79.80;;;;;;5018621;28;20033;-72
2021/05/10 04:45:13;;;;;;;6.80;4.40;;;13.40;79.70;;;;;;5018371;28;20104;-72
2021/05/10 04:47:40;;;;;;;8.52;4.28;;;13.60;78.80;;;;;;5018777;28;20065;-72
2021/05/10 04:50:09;;;;;;;6.65;4.53;;;13.80;77.40;;;;;;5018761;28;20101;-72
2021/05/10 04:52:35;;;;;;;7.47;4.30;;;14.00;77.00;;;;;;5018732;28;20036;-72
2021/05/10 04:55:01;;;;;;;6.10;3.78;;;14.10;78.10;;;;;;5018585;28;20026;-72
2021/05/10 04:57:27;;;;;;;7.95;3.90;;;14.20;78.40;;;;;;5018603;28;20030;-72
2021/05/10 04:59:52;;;;;;;13.77;4.35;;;14.20;77.90;;;;;;5018299;28;20476;-72
2021/05/10 05:02:18;;;;;;;5.72;3.85;;;14.30;76.40;;;;;;5018591;28;20037;-72
2021/05/10 05:04:44;;;;;;;8.60;3.85;;;14.40;75.50;;;;;;5018432;28;20410;-72
2021/05/10 05:07:09;;;;;;;9.02;4.18;;;14.50;75.30;;;;;;5018377;28;20300;-72
2021/05/10 05:09:35;;;;;;;8.60;4.15;;;14.60;75.30;;;;;;5018370;28;20021;-72
2021/05/10 05:12:01;;;;;;;9.27;3.92;;;14.60;76.60;;;;;;5018132;28;20402;-72
2021/05/10 05:14:26;;;;;;;7.80;4.13;;;14.70;75.70;;;;;;5018291;28;20014;-72
2021/05/10 05:16:52;;;;;;;7.22;3.80;;;14.80;74.80;;;;;;5018225;28;20161;-72
2021/05/10 05:19:18;;;;;;;9.52;3.70;;;15.00;74.00;;;;;;5017920;28;20354;-72
2021/05/10 05:21:43;;;;;;;8.15;4.43;;;15.20;73.30;;;;;;5018260;28;20026;-72
2021/05/10 05:24:09;;;;;;;6.28;3.33;;;15.30;73.80;;;;;;5018107;28;20329;-72
2021/05/10 05:26:35;;;;;;;7.95;2.40;;;15.40;73.30;;;;;;5017517;28;20050;-72
2021/05/10 05:29:00;;;;;;;5.80;3.70;;;15.50;73.60;;;;;;5018085;28;20022;-72
2021/05/10 05:31:26;;;;;;;7.28;3.97;;;15.50;71.90;;;;;;5017340;28;20030;-72
2021/05/10 05:33:52;;;;;;;7.53;3.90;;;15.60;71.40;;;;;;5017912;28;20045;-72
2021/05/10 05:36:17;;;;;;;6.00;3.60;;;15.60;72.40;;;;;;5017633;28;20052;-72
2021/05/10 05:38:43;;;;;;;5.00;3.33;;;15.60;72.60;;;;;;5017589;28;20113;-72
2021/05/10 05:41:14;;;;;;;6.88;3.90;;;15.70;71.90;;;;;;5017859;28;20361;-72
2021/05/10 05:43:40;;;;;;;6.90;3.00;;;15.70;71.30;;;;;;5017816;28;20378;-72
2021/05/10 05:46:13;;;;;;;8.45;3.30;;;15.70;71.10;;;;;;5017667;28;20061;-72
2021/05/10 05:48:38;;;;;;;7.30;3.50;;;15.70;71.50;;;;;;5017757;28;20029;-72
2021/05/10 05:51:04;;;;;;;6.45;3.25;;;15.80;71.80;;;;;;5017679;28;20429;-72
2021/05/10 05:53:30;;;;;;;7.80;3.95;;;15.80;71.70;;;;;;5017385;28;20481;-72
2021/05/10 05:55:56;;;;;;;11.27;3.72;;;15.90;71.90;;;;;;5017647;28;20033;-72
2021/05/10 05:58:22;;;;;;;6.15;3.33;;;16.00;71.00;;;;;;5017293;28;20041;-72
2021/05/10 06:00:47;;;;;;;6.65;3.67;;;16.10;71.60;;;;;;5017188;28;20084;-72
2021/05/10 06:03:15;;;;;;;9.18;3.95;;;16.30;70.50;;;;;;5017565;28;20033;-72
2021/05/10 06:05:41;;;;;;;5.30;3.15;;;16.40;70.20;;;;;;5017314;28;20033;-72
2021/05/10 06:08:07;;;;;;;7.22;3.00;;;16.40;69.00;;;;;;5017120;28;20434;-72
2021/05/10 06:10:32;;;;;;;4.82;2.90;;;16.60;68.80;;;;;;5017393;28;20033;-72
2021/05/10 06:12:58;;;;;;;7.25;3.22;;;16.70;68.60;;;;;;5017129;28;20022;-72
2021/05/10 06:15:24;;;;;;;5.53;2.70;;;16.90;68.70;;;;;;5017313;28;20101;-72
2021/05/10 06:17:50;;;;;;;4.45;3.20;;;17.10;68.70;;;;;;5017343;28;20093;-72
2021/05/10 06:20:17;;;;;;;7.82;3.40;;;17.50;67.00;;;;;;5016957;28;20036;-72
2021/05/10 06:22:43;;;;;;;6.22;2.75;;;18.00;65.20;;;;;;5017845;28;20026;-72
2021/05/10 06:25:11;;;;;;;5.88;3.03;;;18.60;63.90;;;;;;5016558;28;20057;-72
2021/05/10 06:27:37;;;;;;;6.93;3.47;;;19.30;61.80;;;;;;5017217;28;20032;-70
2021/05/10 06:30:05;;;;;;;5.68;2.53;;;20.10;59.60;;;;;;5017139;28;20369;-70
2021/05/10 06:32:30;;;;;;;7.70;3.55;;;20.80;58.30;;;;;;5016915;28;20465;-72
2021/05/10 06:34:56;;;;;;;8.60;3.03;;;21.60;55.60;;;;;;5017053;28;20029;-71
2021/05/10 06:37:22;;;;;;;4.80;2.65;;;22.20;54.60;;;;;;5016737;28;20037;-72
2021/05/10 06:39:48;;;;;;;6.93;3.30;;;22.70;53.70;;;;;;5017058;28;20022;-71
2021/05/10 06:42:15;;;;;;;11.40;2.60;;;23.20;53.50;;;;;;5018324;28;20025;-70
2021/05/10 06:44:41;;;;;;;6.35;2.35;;;23.70;52.80;;;;;;5021057;28;20033;-71
2021/05/10 06:47:07;;;;;;;6.50;2.28;;;24.20;52.50;;;;;;5020975;28;20087;-70
2021/05/10 06:49:34;;;;;;;4.38;2.35;;;24.40;52.40;;;;;;5021062;28;20026;-70
2021/05/10 06:52:00;;;;;;;5.65;2.38;;;24.60;53.80;;;;;;5020778;28;20335;-70
2021/05/10 06:54:26;;;;;;;7.03;2.20;;;24.60;52.80;;;;;;5020532;28;20025;-70
2021/05/10 06:56:51;;;;;;;4.35;2.10;;;24.70;52.90;;;;;;5020882;28;20033;-71
2021/05/10 06:59:18;;;;;;;3.63;2.20;;;24.60;52.50;;;;;;5020879;28;20303;-71
2021/05/10 07:01:44;;;;;;;5.28;2.30;;;24.50;53.40;;;;;;5020546;28;20029;-71
2021/05/10 07:04:10;;;;;;;4.28;2.30;;;24.60;52.30;;;;;;5020702;28;20033;-71
2021/05/10 07:06:35;;;;;;;8.85;2.90;;;24.40;52.10;;;;;;5020667;28;20030;-71
2021/05/10 07:09:01;;;;;;;5.85;2.20;;;24.40;52.30;;;;;;5020652;28;20022;-71
2021/05/10 07:11:27;;;;;;;4.53;1.80;;;24.40;52.30;;;;;;5020664;28;20326;-70
2021/05/10 07:13:53;;;;;;;3.58;2.00;;;24.80;52.50;;;;;;5020265;28;20021;-71
2021/05/10 07:16:18;;;;;;;3.83;1.67;;;25.00;53.10;;;;;;5020236;28;20030;-71
2021/05/10 07:18:44;;;;;;;3.63;1.67;;;24.70;54.60;;;;;;5020564;28;20060;-71
2021/05/10 07:21:10;;;;;;;5.10;1.63;;;24.80;54.20;;;;;;5020424;28;20322;-71
2021/05/10 07:23:36;;;;;;;4.18;1.67;;;24.80;54.70;;;;;;5020412;28;20481;-71
2021/05/10 07:26:02;;;;;;;2.92;1.60;;;24.30;55.00;;;;;;5019835;28;20054;-70
2021/05/10 07:28:28;;;;;;;2.88;1.60;;;23.60;56.00;;;;;;5020296;28;20096;-71
2021/05/10 07:30:54;;;;;;;3.13;1.60;;;23.60;57.40;;;;;;5020267;28;20026;-71
2021/05/10 07:33:19;;;;;;;8.55;2.20;;;24.00;56.70;;;;;;5020269;28;20049;-71
2021/05/10 07:35:45;;;;;;;3.90;1.98;;;24.50;56.30;;;;;;5019808;28;20034;-71
2021/05/10 07:38:12;;;;;;;4.65;1.77;;;24.80;56.30;;;;;;5019799;28;20033;-71
2021/05/10 07:40:39;;;;;;;7.07;1.60;;;25.40;56.20;;;;;;5020070;28;20034;-72
2021/05/10 07:43:05;;;;;;;4.15;2.00;;;25.50;55.70;;;;;;5020073;28;20096;-72
2021/05/10 07:45:31;;;;;;;7.05;1.90;;;25.70;53.30;;;;;;5019545;28;20172;-70
2021/05/10 07:47:57;;;;;;;3.20;1.42;;;25.50;58.00;;;;;;5019956;28;20030;-72
2021/05/10 07:50:25;;;;;;;5.75;2.00;;;25.10;57.60;;;;;;5019884;28;20032;-71
2021/05/10 07:52:52;;;;;;;3.58;1.50;;;25.10;56.00;;;;;;5019881;28;20111;-71
2021/05/10 07:55:18;;;;;;;3.70;2.13;;;25.30;57.40;;;;;;5018991;28;20044;-71
2021/05/10 07:57:45;;;;;;;4.35;1.80;;;25.50;56.20;;;;;;5019744;28;20022;-71
2021/05/10 08:00:15;;;;;;;5.03;2.33;;;25.70;54.50;;;;;;5019420;28;20026;-71
2021/05/10 08:02:43;;;;;;;5.25;2.17;;;26.00;54.50;;;;;;5019760;28;20367;-71
2021/05/10 08:05:10;;;;;;;8.32;2.17;;;26.10;55.40;;;;;;5019551;28;20054;-71
2021/05/10 08:07:36;;;;;;;4.80;2.13;;;26.20;53.60;;;;;;5019288;28;20025;-72
2021/05/10 08:10:07;;;;;;;3.40;1.98;;;26.00;54.10;;;;;;5019428;28;20109;-71
2021/05/10 08:12:33;;;;;;;3.85;2.58;;;25.80;54.80;;;;;;5019096;28;20410;-71
2021/05/10 08:14:58;;;;;;;5.43;2.95;;;26.10;52.10;;;;;;5018923;28;20113;-71
2021/05/10 08:17:25;;;;;;;6.60;2.55;;;26.30;52.80;;;;;;5019399;28;20105;-71
2021/05/10 08:19:51;;;;;;;4.18;2.85;;;26.50;53.40;;;;;;5034449;28;20045;-71
2021/05/10 08:22:17;;;;;;;6.10;2.97;;;26.40;54.20;;;;;;5019029;28;20474;-71
2021/05/10 08:24:43;;;;;;;4.20;2.50;;;26.20;52.20;;;;;;5018683;28;20125;-72
2021/05/10 08:27:09;;;;;;;6.03;2.78;;;26.30;54.90;;;;;;5018876;28;20041;-71
2021/05/10 08:29:35;;;;;;;7.88;2.72;;;26.60;51.90;;;;;;5018860;28;20056;-71
2021/05/10 08:32:01;;;;;;;3.45;2.28;;;26.60;54.20;;;;;;5018832;28;20030;-71
2021/05/10 08:34:27;;;;;;;3.60;2.50;;;26.30;56.30;;;;;;5019024;28;20096;-72
2021/05/10 08:36:54;;;;;;;5.57;2.03;;;26.40;52.50;;;;;;5019025;28;20026;-71
2021/05/10 08:39:20;;;;;;;5.88;2.20;;;26.50;55.00;;;;;;5019006;28;20327;-71
2021/05/10 08:41:46;;;;;;;4.10;2.10;;;26.80;55.00;;;;;;5018976;28;20373;-71
2021/05/10 08:44:12;;;;;;;3.22;2.25;;;26.90;52.10;;;;;;5018535;28;20113;-72
2021/05/10 08:46:39;;;;;;;3.17;2.22;;;27.10;51.70;;;;;;5018752;28;20036;-71
2021/05/10 08:49:06;;;;;;;7.65;2.95;;;27.20;52.60;;;;;;5018515;28;20104;-71
2021/05/10 08:51:36;;;;;;;7.03;2.65;;;27.40;49.40;;;;;;5018823;28;20039;-71
2021/05/10 08:54:03;;;;;;;4.28;2.40;;;27.40;51.00;;;;;;5017372;28;20029;-72
2021/05/10 08:56:29;;;;;;;4.97;2.28;;;27.40;51.30;;;;;;5018818;28;20045;-71
2021/05/10 08:58:55;;;;;;;4.95;2.70;;;27.30;54.80;;;;;;5018343;28;20030;-71
2021/05/10 09:01:21;;;;;;;5.72;2.80;;;27.40;51.80;;;;;;5018537;28;20330;-71
2021/05/10 09:03:50;;;;;;;6.45;2.70;;;27.20;51.40;;;;;;5018515;28;20022;-71
2021/05/10 09:06:21;;;;;;;6.93;3.08;;;27.20;51.40;;;;;;5017375;28;20026;-71
2021/05/10 09:08:49;;;;;;;6.28;2.80;;;27.50;52.00;;;;;;5018225;28;20030;-71
2021/05/10 09:11:17;;;;;;;6.32;2.83;;;27.70;50.80;;;;;;5018080;28;20054;-71
2021/05/10 09:13:44;;;;;;;5.15;2.97;;;28.00;49.10;;;;;;5018002;28;20425;-71
2021/05/10 09:16:12;;;;;;;5.72;3.15;;;28.10;47.40;;;;;;5018332;28;20373;-71
2021/05/10 09:18:39;;;;;;;6.20;2.38;;;27.80;51.10;;;;;;5017990;28;20033;-71
2021/05/10 09:21:12;;;;;;;5.35;3.13;;;28.00;53.80;;;;;;5018184;28;20057;-71
2021/05/10 09:23:37;;;;;;;7.30;2.90;;;28.00;50.70;;;;;;5018138;28;20034;-71
2021/05/10 09:26:04;;;;;;;7.35;3.17;;;28.10;50.10;;;;;;5017557;28;20338;-71
2021/05/10 09:28:37;;;;;;;9.80;3.40;;;28.20;49.30;;;;;;5018116;28;20100;-72
2021/05/10 09:31:08;;;;;;;9.85;3.22;;;28.30;47.60;;;;;;5017725;28;20037;-72
2021/05/10 09:33:40;;;;;;;6.47;2.85;;;28.60;48.10;;;;;;5018031;28;20037;-71
2021/05/10 09:36:06;;;;;;;9.07;2.85;;;28.60;49.10;;;;;;5017658;28;20037;-71
2021/05/10 09:38:38;;;;;;;6.20;2.30;;;28.50;48.10;;;;;;5017614;28;20492;-71
2021/05/10 09:41:08;;;;;;;5.43;2.30;;;28.30;47.60;;;;;;5017946;28;20030;-71
2021/05/10 09:43:36;;;;;;;6.68;2.60;;;28.50;48.10;;;;;;5017537;28;20026;-71
2021/05/10 09:46:12;;;;;;;9.77;3.13;;;28.40;48.10;;;;;;5017317;28;20034;-71
2021/05/10 09:48:39;;;;;;;7.88;3.00;;;27.80;46.20;;;;;;5018057;28;20381;-71
2021/05/10 09:51:15;;;;;;;8.82;2.55;;;27.40;50.70;;;;;;5017420;28;20105;-72
2021/05/10 09:53:48;;;;;;;7.03;2.67;;;27.50;49.10;;;;;;5017640;28;20041;-72
2021/05/10 09:56:19;;;;;;;8.15;2.63;;;27.60;48.30;;;;;;5017332;28;20334;-72
2021/05/10 09:58:48;;;;;;;6.15;3.10;;;27.60;48.10;;;;;;5017273;28;20037;-71
2021/05/10 10:01:15;;;;;;;6.60;3.05;;;27.60;47.60;;;;;;5017553;28;20308;-71
2021/05/10 10:03:41;;;;;;;7.47;3.65;;;27.40;50.20;;;;;;5017140;28;20030;-71
2021/05/10 10:06:18;;;;;;;7.63;3.08;;;27.30;46.60;;;;;;5017120;28;20444;-71
2021/05/10 10:08:47;;;;;;;9.30;2.83;;;27.40;49.30;;;;;;5017125;28;20410;-72
2021/05/10 10:11:18;;;;;;;7.53;2.75;;;27.70;53.50;;;;;;5017421;28;20053;-72
2021/05/10 10:13:47;;;;;;;6.15;2.90;;;27.90;47.60;;;;;;5016794;28;20030;-71
2021/05/10 10:16:15;;;;;;;4.97;2.67;;;28.00;48.00;;;;;;5022118;28;20169;-72
2021/05/10 10:18:41;;;;;;;8.73;3.25;;;28.00;47.00;;;;;;5024117;28;20034;-72
2021/05/10 10:21:09;;;;;;;7.57;2.90;;;27.80;48.90;;;;;;5017272;28;20316;-72
2021/05/10 10:23:36;;;;;;;6.32;2.63;;;27.50;48.70;;;;;;5016951;28;20112;-71
2021/05/10 10:26:08;;;;;;;6.30;2.88;;;27.40;51.80;;;;;;5016600;28;20049;-71
2021/05/10 10:28:37;;;;;;;8.55;3.28;;;27.40;50.90;;;;;;5016920;28;20042;-72
2021/05/10 10:31:05;;;;;;;8.93;2.58;;;27.30;47.50;;;;;;5017068;28;20030;-71
2021/05/10 10:33:57;;;;;;;5.80;3.17;;;27.00;52.70;;;;;;5016878;28;20056;-72
2021/05/10 10:36:29;;;;;;;6.72;2.60;;;27.10;51.80;;;;;;5017141;28;20030;-71
2021/05/10 10:39:19;;;;;;;3.83;2.22;;;27.20;50.80;;;;;;5017095;28;20029;-72
2021/05/10 10:42:09;;;;;;;5.72;2.58;;;27.50;49.60;;;;;;5016832;28;20041;-72
2021/05/10 10:44:52;;;;;;;6.47;3.05;;;27.70;49.10;;;;;;5016656;28;20426;-72
2021/05/10 10:47:43;;;;;;;4.18;2.30;;;27.90;48.80;;;;;;5016706;28;20037;-72
2021/05/10 10:50:09;;;;;;;14.25;2.58;;;28.00;54.60;;;;;;5016986;28;20361;-72
2021/05/10 10:52:56;;;;;;;11.27;3.75;;;28.00;51.20;;;;;;5016841;28;20105;-72
2021/05/10 10:55:27;;;;;;;6.15;2.58;;;26.70;48.10;;;;;;5016954;28;20030;-71
2021/05/10 10:58:14;;;;;;;11.25;2.67;;;26.70;50.20;;;;;;5016912;28;20038;-71
2021/05/10 11:01:07;;;;;;;5.60;2.90;;;26.70;52.10;;;;;;5016507;28;20376;-72
2021/05/10 11:03:35;;;;;;;6.32;2.25;;;26.70;51.80;;;;;;5016579;28;20472;-73
2021/05/10 11:06:02;;;;;;;9.73;3.35;;;27.00;56.00;;;;;;5016729;28;20026;-72
2021/05/10 11:08:40;;;;;;;4.28;2.92;;;27.10;51.70;;;;;;5016569;28;20054;-72
2021/05/10 11:11:07;;;;;;;6.47;2.83;;;27.10;49.40;;;;;;5016826;28;20319;-72
2021/05/10 11:13:37;;;;;;;7.00;2.97;;;27.10;49.40;;;;;;5016834;28;20291;-73
2021/05/10 11:16:03;;;;;;;4.47;2.28;;;27.00;51.60;;;;;;5016466;28;20037;-72
2021/05/10 11:18:48;;;;;;;6.30;3.20;;;26.50;52.10;;;;;;5016461;28;20037;-73
2021/05/10 11:21:23;;;;;;;3.42;2.22;;;26.40;53.00;;;;;;5016422;28;20054;-73
2021/05/10 11:24:00;;;;;;;5.65;3.08;;;26.40;56.30;;;;;;5016674;28;20117;-73
2021/05/10 11:26:52;;;;;;;6.05;2.70;;;26.20;52.60;;;;;;5016174;28;20060;-73
2021/05/10 11:29:27;;;;;;;9.45;2.30;;;26.30;54.30;;;;;;5017954;28;20034;-72
2021/05/10 11:32:06;;;;;;;9.40;3.70;;;26.30;53.90;;;;;;5020063;28;20041;-71
2021/05/10 11:34:38;;;;;;;5.72;2.83;;;26.20;51.10;;;;;;5020211;28;20140;-71
2021/05/10 11:37:05;;;;;;;7.00;3.38;;;26.30;53.00;;;;;;5019916;28;20041;-71
2021/05/10 11:39:34;;;;;;;6.47;3.03;;;26.20;54.50;;;;;;5019815;28;20076;-71
2021/05/10 11:42:02;;;;;;;8.75;2.90;;;26.20;53.80;;;;;;5019861;28;20072;-71
2021/05/10 11:44:33;;;;;;;4.93;2.60;;;26.00;55.90;;;;;;5020044;28;20032;-70
2021/05/10 11:47:00;;;;;;;5.25;3.00;;;25.80;57.00;;;;;;5019996;28;20034;-71
2021/05/10 11:49:30;;;;;;;7.18;3.08;;;25.60;57.00;;;;;;5019952;28;20029;-72
2021/05/10 11:51:58;;;;;;;8.63;3.00;;;25.60;57.60;;;;;;5019938;28;20032;-72
2021/05/10 11:54:25;;;;;;;6.88;3.03;;;25.40;54.80;;;;;;5019693;28;20077;-71
2021/05/10 11:56:52;;;;;;;5.50;3.13;;;25.30;58.80;;;;;;5019804;28;20038;-72
2021/05/10 12:01:51;;;;;;;4.13;2.85;;;25.10;57.70;;;;;;5019829;28;20033;-72
2021/05/10 12:04:21;;;;;;;8.38;3.28;;;25.00;55.40;;;;;;5019637;28;20034;-72
2021/05/10 12:06:47;;;;;;;6.43;3.30;;;24.80;59.00;;;;;;5019334;28;20022;-72
2021/05/10 12:09:39;;;;;;;7.15;4.28;;;24.70;58.20;;;;;;5019605;28;20021;-73
2021/05/10 12:12:14;;;;;;;6.10;3.53;;;24.50;58.60;;;;;;5019347;28;20381;-72
2021/05/10 12:14:42;;;;;;;5.95;3.92;;;24.30;61.50;;;;;;5019470;28;20025;-72
2021/05/10 12:17:09;;;;;;;7.72;3.60;;;24.20;57.10;;;;;;5019123;28;20034;-72
2021/05/10 12:20:06;;;;;;;6.90;3.50;;;24.00;58.90;;;;;;5019102;28;20029;-73
2021/05/10 12:22:58;;;;;;;5.72;3.50;;;23.90;62.00;;;;;;5018671;28;20038;-72
2021/05/10 12:25:30;;;;;;;4.97;2.83;;;23.80;59.10;;;;;;5018294;28;20038;-72
2021/05/10 12:28:07;;;;;;;12.57;4.13;;;23.80;61.60;;;;;;5018939;28;20026;-72
2021/05/10 12:30:47;;;;;;;6.50;3.53;;;23.60;61.70;;;;;;5019208;28;20029;-73
2021/05/10 12:33:15;;;;;;;7.70;3.58;;;23.50;61.50;;;;;;5018853;28;20026;-72
2021/05/10 12:35:45;;;;;;;8.00;3.55;;;23.70;59.60;;;;;;5019063;28;20088;-73
2021/05/10 12:38:11;;;;;;;8.68;3.13;;;23.70;58.60;;;;;;5018770;28;20465;-73
2021/05/10 12:40:43;;;;;;;5.95;3.20;;;23.70;63.10;;;;;;5018465;28;20210;-73
2021/05/10 12:43:16;;;;;;;7.68;3.53;;;23.70;62.20;;;;;;5018736;28;20037;-73
2021/05/10 12:46:04;;;;;;;9.60;4.13;;;23.70;61.90;;;;;;5018462;28;20036;-72
2021/05/10 12:48:39;;;;;;;8.27;3.13;;;23.70;61.10;;;;;;5018899;28;20325;-73
2021/05/10 12:51:06;;;;;;;6.57;3.58;;;23.80;63.70;;;;;;5018829;28;20030;-72
2021/05/10 12:53:34;;;;;;;4.72;2.67;;;23.80;57.90;;;;;;5018827;28;20037;-73
2021/05/10 12:56:14;;;;;;;9.50;4.18;;;23.70;63.50;;;;;;5018764;28;20030;-73
2021/05/10 12:58:44;;;;;;;10.40;4.00;;;23.70;58.20;;;;;;5018709;28;20060;-71
2021/05/10 13:01:38;;;;;;;6.82;4.43;;;23.60;59.10;;;;;;5018376;28;20030;-72
2021/05/10 13:04:07;;;;;;;5.90;3.80;;;23.60;63.60;;;;;;5017979;28;20034;-71